Time;durP1;ratioP1;P1;durP2;ratioP2;P2;SDS_P1;SDS_P2;PMS_P1;PMS_P2;Temp;Humidity;BMP_temperature;BMP_pressure;BME280_temperature;BME280_humidity;BME280_pressure;Samples;Min_cycle;Max_cycle;Signal;HPM_P1;HPM_P2
2023/04/07 00:05:01;;;;;;;12.30;6.97;;;9.90;96.40;;;;;;10406388;28;20492;-66
2023/04/07 00:10:02;;;;;;;11.85;6.97;;;9.90;96.30;;;;;;10406577;28;20032;-66
2023/04/07 00:15:03;;;;;;;10.48;6.95;;;9.90;96.30;;;;;;10406903;28;20022;-66
2023/04/07 00:20:04;;;;;;;9.60;6.45;;;9.90;96.30;;;;;;10405504;28;20039;-65
2023/04/07 00:25:05;;;;;;;8.43;5.65;;;9.90;96.30;;;;;;10403631;28;20252;-66
2023/04/07 00:30:06;;;;;;;10.02;6.78;;;9.90;96.30;;;;;;10410962;28;20121;-66
2023/04/07 00:35:07;;;;;;;10.05;7.15;;;9.90;96.30;;;;;;10401426;28;20450;-66
2023/04/07 00:40:08;;;;;;;8.88;6.50;;;9.90;96.30;;;;;;10410568;28;20140;-66
2023/04/07 00:45:10;;;;;;;11.20;6.93;;;9.90;96.30;;;;;;10411382;28;20596;-66
2023/04/07 00:50:11;;;;;;;11.02;6.93;;;9.90;96.30;;;;;;10403127;28;20124;-66
2023/04/07 00:55:11;;;;;;;10.10;6.72;;;9.90;96.30;;;;;;10406788;28;20029;-66
2023/04/07 01:00:12;;;;;;;10.30;7.00;;;9.90;96.30;;;;;;10400089;28;20383;-66
2023/04/07 01:05:22;;;;;;;10.27;7.03;;;9.90;96.30;;;;;;10402083;28;20032;-66
2023/04/07 01:10:32;;;;;;;9.30;6.40;;;9.90;96.40;;;;;;10402908;28;20053;-66
2023/04/07 01:15:34;;;;;;;10.70;6.88;;;9.90;96.30;;;;;;10405319;28;20040;-66
2023/04/07 01:20:37;;;;;;;10.60;6.90;;;9.90;96.30;;;;;;10406309;28;20026;-66
2023/04/07 01:25:59;;;;;;;9.43;6.38;;;9.90;96.30;;;;;;10409031;28;20506;-66
2023/04/07 01:31:01;;;;;;;11.18;7.28;;;9.90;96.50;;;;;;10406280;28;20013;-66
2023/04/07 01:36:03;;;;;;;12.02;6.13;;;9.90;96.30;;;;;;10410286;28;20494;-65
2023/04/07 01:41:06;;;;;;;10.98;7.00;;;9.90;96.30;;;;;;10409784;28;20493;-66
2023/04/07 01:46:07;;;;;;;11.52;6.97;;;9.90;96.30;;;;;;10404640;28;20032;-66
2023/04/07 01:51:10;;;;;;;8.32;5.75;;;9.90;96.40;;;;;;10402745;28;20108;-66
2023/04/07 01:56:11;;;;;;;10.23;6.90;;;9.90;96.30;;;;;;10408566;28;20064;-65
2023/04/07 02:01:13;;;;;;;10.90;6.93;;;9.90;96.30;;;;;;10409466;28;20114;-66
2023/04/07 02:06:20;;;;;;;9.77;6.63;;;9.90;96.30;;;;;;10406866;28;20036;-66
2023/04/07 02:11:22;;;;;;;11.10;6.03;;;9.90;96.30;;;;;;10404827;28;20633;-66
2023/04/07 02:16:24;;;;;;;10.07;7.10;;;9.90;96.50;;;;;;10401044;28;20022;-65
2023/04/07 02:21:29;;;;;;;9.48;6.38;;;9.90;96.30;;;;;;10405964;28;20099;-66
2023/04/07 02:26:34;;;;;;;9.57;6.40;;;9.90;96.20;;;;;;10409789;28;20029;-66
2023/04/07 02:31:34;;;;;;;9.80;6.32;;;9.90;96.30;;;;;;10409891;28;20017;-66
2023/04/07 02:36:35;;;;;;;11.95;7.03;;;9.90;96.20;;;;;;10404089;28;20044;-66
2023/04/07 02:41:35;;;;;;;8.95;5.85;;;9.90;96.20;;;;;;10405166;28;20406;-66
2023/04/07 02:46:36;;;;;;;9.90;6.05;;;9.90;96.20;;;;;;10407427;28;20448;-66
2023/04/07 02:51:37;;;;;;;10.25;6.75;;;9.90;96.20;;;;;;10410267;28;20252;-65
2023/04/07 02:56:37;;;;;;;10.05;5.68;;;9.90;96.20;;;;;;10414313;28;20018;-66
2023/04/07 03:01:39;;;;;;;10.60;6.10;;;9.90;96.20;;;;;;10422321;28;20128;-65
2023/04/07 03:06:40;;;;;;;10.23;6.25;;;9.90;96.20;;;;;;10414216;28;20457;-66
2023/04/07 03:11:40;;;;;;;9.77;6.05;;;9.90;96.20;;;;;;10415016;28;20117;-65
2023/04/07 03:16:45;;;;;;;9.85;5.72;;;9.90;96.20;;;;;;10405580;28;20033;-66
2023/04/07 03:21:46;;;;;;;11.05;6.68;;;9.90;96.20;;;;;;10406519;28;20489;-65
2023/04/07 03:26:47;;;;;;;9.25;5.90;;;9.90;96.20;;;;;;10413243;28;20096;-66
2023/04/07 03:31:47;;;;;;;10.32;5.97;;;9.90;96.20;;;;;;10416607;28;20021;-66
2023/04/07 03:36:48;;;;;;;9.15;5.70;;;9.90;96.20;;;;;;10417787;28;20045;-66
2023/04/07 03:41:48;;;;;;;8.43;5.32;;;9.90;96.20;;;;;;10421948;28;20047;-66
2023/04/07 03:46:49;;;;;;;9.63;6.00;;;9.90;96.20;;;;;;10426439;28;20095;-66
2023/04/07 03:51:50;;;;;;;7.82;5.38;;;9.90;96.20;;;;;;10413029;28;20583;-66
2023/04/07 03:56:50;;;;;;;9.07;5.97;;;9.90;96.20;;;;;;10419369;28;20378;-66
2023/04/07 04:01:51;;;;;;;7.72;4.80;;;9.90;96.20;;;;;;10412287;28;20037;-66
2023/04/07 04:06:52;;;;;;;7.78;4.95;;;9.90;96.20;;;;;;10415151;28;20013;-66
2023/04/07 04:11:52;;;;;;;7.47;4.75;;;9.90;96.20;;;;;;10412151;28;20276;-66
2023/04/07 04:16:53;;;;;;;7.13;4.63;;;9.90;96.20;;;;;;10415544;28;20485;-66
2023/04/07 04:21:54;;;;;;;7.10;4.63;;;9.90;96.20;;;;;;10410057;28;20222;-65
2023/04/07 04:26:55;;;;;;;6.32;4.20;;;9.90;96.20;;;;;;10414325;28;20671;-66
2023/04/07 04:31:56;;;;;;;6.05;4.05;;;9.90;96.20;;;;;;10419605;28;20585;-65
2023/04/07 04:36:56;;;;;;;5.78;3.92;;;9.90;96.20;;;;;;10403251;28;20037;-66
2023/04/07 04:41:57;;;;;;;6.28;4.35;;;9.90;96.20;;;;;;10403683;28;20049;-66
2023/04/07 04:46:57;;;;;;;5.30;3.50;;;9.90;96.20;;;;;;10410178;28;20021;-65
2023/04/07 04:51:58;;;;;;;7.10;3.65;;;9.90;96.20;;;;;;10412162;28;20075;-66
2023/04/07 04:57:00;;;;;;;5.28;3.40;;;9.90;96.20;;;;;;10408593;28;20104;-66
2023/04/07 05:02:01;;;;;;;6.40;3.78;;;9.90;96.20;;;;;;10421473;28;20026;-65
2023/04/07 05:07:01;;;;;;;4.85;3.55;;;9.90;96.20;;;;;;10407880;28;20435;-66
2023/04/07 05:12:02;;;;;;;4.68;2.80;;;9.90;96.20;;;;;;10415351;28;20075;-66
2023/04/07 05:17:02;;;;;;;4.65;3.13;;;10.00;96.20;;;;;;10412724;28;20244;-65
2023/04/07 05:22:03;;;;;;;4.35;2.97;;;9.90;96.20;;;;;;10414239;28;20017;-66
2023/04/07 05:27:03;;;;;;;4.32;3.00;;;10.00;96.20;;;;;;10415583;28;20401;-65
2023/04/07 05:32:05;;;;;;;6.15;3.25;;;10.00;96.20;;;;;;10405943;28;20587;-65
2023/04/07 05:37:06;;;;;;;4.35;2.70;;;10.00;96.20;;;;;;10410341;28;20048;-66
2023/04/07 05:42:06;;;;;;;4.88;2.88;;;10.00;96.20;;;;;;10419142;28;20032;-66
2023/04/07 05:47:08;;;;;;;4.28;2.60;;;10.00;96.20;;;;;;10416177;28;20017;-66
2023/04/07 05:52:08;;;;;;;6.00;3.03;;;10.00;96.20;;;;;;10405014;28;20047;-66
2023/04/07 05:57:09;;;;;;;4.05;2.30;;;10.00;96.20;;;;;;10414455;28;20504;-66
2023/04/07 06:02:10;;;;;;;4.45;2.45;;;10.00;96.30;;;;;;10397687;28;20088;-67
2023/04/07 06:07:10;;;;;;;4.97;2.33;;;10.00;96.20;;;;;;10411152;28;20025;-66
2023/04/07 06:12:11;;;;;;;4.97;2.80;;;10.00;96.30;;;;;;10395201;28;20037;-66
2023/04/07 06:17:12;;;;;;;4.07;2.65;;;10.00;96.30;;;;;;10402652;28;20025;-66
2023/04/07 06:22:12;;;;;;;3.67;2.80;;;9.90;96.30;;;;;;10406395;28;20033;-65
2023/04/07 06:27:13;;;;;;;4.65;2.85;;;10.00;96.30;;;;;;10410822;28;20021;-65
2023/04/07 06:32:13;;;;;;;4.25;2.75;;;10.00;96.30;;;;;;10412632;28;20021;-66
2023/04/07 06:37:15;;;;;;;6.03;3.05;;;10.00;96.30;;;;;;10403915;28;20044;-66
2023/04/07 06:42:16;;;;;;;4.78;3.00;;;10.00;96.30;;;;;;10412719;28;20702;-65
2023/04/07 06:47:16;;;;;;;3.88;2.75;;;10.00;96.30;;;;;;10412493;28;20006;-66
2023/04/07 06:52:18;;;;;;;3.67;2.50;;;10.00;96.30;;;;;;10417916;28;20504;-65
2023/04/07 06:57:18;;;;;;;4.43;2.67;;;10.00;96.30;;;;;;10408555;28;20111;-65
2023/04/07 07:02:19;;;;;;;4.90;2.55;;;10.00;96.30;;;;;;10412242;28;20036;-65
2023/04/07 07:07:20;;;;;;;4.57;2.58;;;10.00;96.30;;;;;;10409973;28;20030;-66
2023/04/07 07:12:21;;;;;;;4.43;3.13;;;10.00;96.20;;;;;;10413451;28;20033;-65
2023/04/07 07:17:22;;;;;;;3.67;2.60;;;10.00;96.20;;;;;;10408166;28;20025;-65
2023/04/07 07:22:22;;;;;;;3.75;2.67;;;10.10;96.20;;;;;;10409880;28;20029;-65
2023/04/07 07:27:23;;;;;;;6.13;3.13;;;10.10;96.30;;;;;;10411118;28;20385;-65
2023/04/07 07:32:24;;;;;;;5.40;3.10;;;10.10;96.30;;;;;;10413540;28;20204;-65
2023/04/07 07:37:24;;;;;;;3.80;2.83;;;10.10;96.30;;;;;;10397116;28;20100;-68
2023/04/07 07:42:25;;;;;;;4.47;2.83;;;10.10;96.30;;;;;;10403664;28;20103;-65
2023/04/07 07:47:26;;;;;;;3.50;2.60;;;10.10;96.30;;;;;;10408210;28;20035;-66
2023/04/07 07:52:26;;;;;;;5.03;3.20;;;10.10;96.30;;;;;;10414999;28;20051;-66
2023/04/07 07:57:27;;;;;;;9.25;5.00;;;10.10;96.30;;;;;;10405699;28;20292;-65
2023/04/07 08:02:32;;;;;;;5.63;3.10;;;10.20;96.40;;;;;;10408115;28;20022;-65
2023/04/07 08:07:33;;;;;;;4.03;2.85;;;10.20;96.40;;;;;;10402031;28;20326;-65
2023/04/07 08:12:34;;;;;;;4.20;2.90;;;10.20;96.50;;;;;;10412925;28;20100;-65
2023/04/07 08:17:35;;;;;;;6.88;3.20;;;10.20;96.70;;;;;;10415381;28;20042;-65
2023/04/07 08:22:36;;;;;;;4.00;3.05;;;10.20;96.50;;;;;;10395470;28;20031;-65
2023/04/07 08:27:36;;;;;;;6.20;3.40;;;10.20;96.50;;;;;;10350720;28;20465;-70
2023/04/07 08:32:39;;;;;;;5.80;3.22;;;10.20;96.60;;;;;;10310900;28;20117;-65
2023/04/07 08:37:42;;;;;;;7.85;4.63;;;10.30;96.70;;;;;;10312388;28;20498;-65
2023/04/07 08:42:48;;;;;;;6.32;3.97;;;10.30;97.20;;;;;;10316656;28;20029;-66
2023/04/07 08:47:51;;;;;;;6.03;3.80;;;10.40;97.60;;;;;;10314212;28;20034;-66
2023/04/07 08:52:52;;;;;;;6.82;3.78;;;10.40;97.30;;;;;;10316551;28;20029;-66
2023/04/07 08:57:53;;;;;;;6.10;4.07;;;10.50;97.20;;;;;;10316710;28;20514;-66
2023/04/07 09:02:55;;;;;;;8.32;3.78;;;10.50;97.20;;;;;;10315242;28;20027;-66
2023/04/07 09:07:55;;;;;;;8.75;3.75;;;10.50;97.40;;;;;;10309303;28;20077;-66
2023/04/07 09:12:58;;;;;;;5.75;2.90;;;10.50;97.40;;;;;;10316609;28;20030;-66
2023/04/07 09:17:59;;;;;;;5.28;3.35;;;10.50;97.40;;;;;;10314671;28;20030;-66
2023/04/07 09:22:59;;;;;;;5.38;3.35;;;10.50;97.40;;;;;;10316077;28;20387;-66
2023/04/07 09:28:02;;;;;;;6.93;3.13;;;10.50;97.40;;;;;;10318159;28;20045;-66
2023/04/07 09:33:02;;;;;;;4.80;2.63;;;10.40;97.40;;;;;;10316368;28;20207;-66
2023/04/07 09:38:05;;;;;;;5.93;2.90;;;10.40;97.40;;;;;;10307782;28;20185;-66
2023/04/07 09:43:13;;;;;;;4.40;2.90;;;10.50;97.40;;;;;;10323329;28;20031;-67
2023/04/07 09:48:20;;;;;;;4.43;2.53;;;10.50;97.30;;;;;;10312233;28;20068;-65
2023/04/07 09:53:41;;;;;;;3.13;2.30;;;10.50;97.40;;;;;;10310457;28;20448;-65
2023/04/07 09:58:45;;;;;;;5.07;2.50;;;10.50;97.50;;;;;;10314386;28;20485;-66
2023/04/07 10:03:46;;;;;;;5.32;2.60;;;10.50;97.30;;;;;;10316281;28;20023;-66
2023/04/07 10:08:47;;;;;;;4.18;2.42;;;10.50;97.30;;;;;;10314376;28;20105;-65
2023/04/07 10:13:48;;;;;;;11.52;3.65;;;10.60;97.30;;;;;;10310003;28;20522;-65
2023/04/07 10:18:50;;;;;;;4.22;2.83;;;10.50;97.20;;;;;;10314890;28;20142;-66
2023/04/07 10:24:27;;;;;;;4.70;3.00;;;10.50;97.20;;;;;;10306906;28;20096;-65
2023/04/07 10:29:33;;;;;;;6.43;3.40;;;10.60;97.30;;;;;;10311723;28;20030;-65
2023/04/07 10:34:56;;;;;;;4.20;2.67;;;10.60;97.20;;;;;;10313735;28;20502;-64
2023/04/07 10:40:20;;;;;;;4.28;2.63;;;10.60;97.30;;;;;;10313630;28;20085;-65
2023/04/07 10:45:53;;;;;;;4.40;3.10;;;10.70;97.30;;;;;;10313323;28;20022;-65
2023/04/07 10:51:07;;;;;;;6.03;3.08;;;10.70;97.20;;;;;;10312140;28;20054;-65
2023/04/07 10:56:07;;;;;;;5.57;3.20;;;10.70;97.10;;;;;;10313634;28;20057;-64
2023/04/07 11:01:08;;;;;;;5.72;3.40;;;10.80;97.00;;;;;;10311668;28;20093;-65
2023/04/07 11:06:11;;;;;;;5.75;3.40;;;10.80;97.00;;;;;;10315874;28;20077;-65
2023/04/07 11:11:15;;;;;;;4.38;2.65;;;10.80;97.00;;;;;;10313636;28;20528;-65
2023/04/07 11:16:17;;;;;;;5.07;3.28;;;10.80;97.00;;;;;;10310197;28;20022;-65
2023/04/07 11:21:18;;;;;;;6.78;4.35;;;10.80;97.00;;;;;;10322071;28;20055;-68
2023/04/07 11:26:20;;;;;;;6.80;4.32;;;10.90;97.60;;;;;;10316852;28;20105;-67
2023/04/07 11:31:25;;;;;;;7.63;4.75;;;11.00;97.90;;;;;;10317242;28;20022;-66
2023/04/07 11:36:34;;;;;;;8.38;5.45;;;10.90;98.50;;;;;;10313462;28;20038;-67
2023/04/07 11:41:45;;;;;;;9.65;5.47;;;10.90;98.80;;;;;;10314374;28;20035;-67
2023/04/07 11:47:02;;;;;;;8.50;4.93;;;10.90;99.20;;;;;;10318847;28;20414;-67
2023/04/07 11:52:05;;;;;;;8.18;5.00;;;10.90;99.10;;;;;;10322143;28;20109;-67
2023/04/07 11:57:09;;;;;;;7.00;4.63;;;10.80;98.70;;;;;;10316189;28;20038;-68
2023/04/07 12:02:09;;;;;;;6.82;3.95;;;10.70;98.80;;;;;;10313385;28;20026;-68
2023/04/07 12:07:10;;;;;;;8.18;4.50;;;10.80;98.80;;;;;;10321049;28;20022;-69
2023/04/07 12:12:11;;;;;;;8.73;5.18;;;10.90;99.00;;;;;;10319188;28;20351;-68
2023/04/07 12:17:25;;;;;;;7.38;4.47;;;10.80;99.10;;;;;;10318298;28;20027;-69
2023/04/07 12:22:26;;;;;;;6.82;3.95;;;10.70;99.50;;;;;;10300492;28;20030;-68
2023/04/07 12:27:27;;;;;;;5.72;4.07;;;10.80;99.20;;;;;;10306526;28;20073;-68
2023/04/07 12:32:27;;;;;;;6.78;4.03;;;10.90;99.10;;;;;;10315949;28;20384;-68
2023/04/07 12:37:28;;;;;;;6.75;4.05;;;11.00;98.90;;;;;;10316344;28;20052;-66
2023/04/07 12:42:29;;;;;;;6.13;3.95;;;11.10;98.80;;;;;;10318315;28;20039;-66
2023/04/07 12:47:30;;;;;;;6.10;4.18;;;11.20;98.80;;;;;;10320513;28;20022;-66
2023/04/07 12:52:31;;;;;;;6.65;3.55;;;11.30;98.80;;;;;;10312698;28;20023;-66
2023/04/07 12:57:32;;;;;;;6.63;4.00;;;11.40;98.60;;;;;;10316799;28;20385;-66
2023/04/07 13:02:35;;;;;;;7.57;4.20;;;11.40;98.80;;;;;;10315924;28;20042;-66
2023/04/07 13:07:36;;;;;;;6.13;3.70;;;11.40;98.80;;;;;;10317030;28;20058;-65
2023/04/07 13:12:38;;;;;;;5.50;3.85;;;11.40;98.70;;;;;;10316606;28;20564;-67
2023/04/07 13:17:39;;;;;;;6.38;3.72;;;11.40;98.70;;;;;;10313561;28;20041;-67
2023/04/07 13:22:40;;;;;;;5.40;3.88;;;11.40;98.70;;;;;;10312861;28;20031;-65
2023/04/07 13:27:40;;;;;;;6.20;3.92;;;11.40;98.80;;;;;;10316038;28;20057;-65
2023/04/07 13:32:43;;;;;;;5.97;3.92;;;11.20;99.00;;;;;;10312610;28;20029;-65
2023/04/07 13:37:44;;;;;;;5.57;3.80;;;11.20;99.10;;;;;;10314299;28;20038;-65
2023/04/07 13:42:45;;;;;;;6.60;3.97;;;11.20;99.20;;;;;;10316579;28;20053;-65
2023/04/07 13:47:45;;;;;;;8.02;4.90;;;11.10;99.10;;;;;;10326611;28;20023;-67
2023/04/07 13:52:47;;;;;;;7.72;5.25;;;11.00;99.50;;;;;;10312448;28;20026;-66
2023/04/07 13:57:47;;;;;;;9.38;5.18;;;10.90;99.60;;;;;;10314941;28;20072;-65
2023/04/07 14:02:48;;;;;;;7.47;5.05;;;10.80;99.80;;;;;;10310371;28;20100;-66
2023/04/07 14:07:49;;;;;;;9.15;5.13;;;10.70;99.90;;;;;;10311323;28;20081;-65
2023/04/07 14:12:50;;;;;;;8.88;5.18;;;10.80;99.90;;;;;;10309718;28;20018;-66
2023/04/07 14:17:50;;;;;;;6.78;4.40;;;10.90;99.80;;;;;;10314196;28;20030;-66
2023/04/07 14:22:51;;;;;;;8.77;4.95;;;11.10;99.60;;;;;;10310729;28;20080;-66
2023/04/07 14:27:51;;;;;;;7.43;4.50;;;11.20;99.30;;;;;;10310182;28;20050;-67
2023/04/07 14:32:52;;;;;;;7.25;4.72;;;11.20;99.30;;;;;;10314848;28;20034;-65
2023/04/07 14:37:54;;;;;;;6.93;4.25;;;11.20;99.30;;;;;;10313094;28;20038;-64
2023/04/07 14:42:56;;;;;;;6.75;4.30;;;11.20;99.30;;;;;;10311153;28;20018;-65
2023/04/07 14:47:57;;;;;;;7.72;4.57;;;11.20;99.30;;;;;;10315535;28;20022;-66
2023/04/07 14:52:58;;;;;;;7.45;4.75;;;11.30;99.30;;;;;;10301086;28;20033;-66
2023/04/07 14:57:59;;;;;;;7.88;4.68;;;11.30;99.20;;;;;;10326105;28;20495;-66
2023/04/07 15:02:59;;;;;;;7.00;4.43;;;11.30;99.20;;;;;;10321244;28;20042;-66
2023/04/07 15:08:00;;;;;;;7.60;4.53;;;11.30;99.10;;;;;;10323612;28;20096;-65
2023/04/07 15:13:01;;;;;;;6.90;4.20;;;11.70;99.20;;;;;;10318820;28;20061;-66
2023/04/07 15:18:02;;;;;;;6.50;4.65;;;11.30;99.00;;;;;;10322673;28;20022;-65
2023/04/07 15:23:02;;;;;;;8.90;4.40;;;11.30;99.00;;;;;;10323361;28;20033;-65
2023/04/07 15:28:03;;;;;;;7.40;4.50;;;11.40;99.00;;;;;;10313600;28;20518;-66
2023/04/07 15:33:04;;;;;;;7.28;4.07;;;11.40;99.00;;;;;;10322149;28;20073;-66
2023/04/07 15:38:04;;;;;;;7.47;4.30;;;11.40;99.00;;;;;;10318177;28;20092;-66
2023/04/07 15:43:09;;;;;;;6.75;4.43;;;11.40;99.10;;;;;;10314212;28;20125;-66
2023/04/07 15:48:11;;;;;;;7.40;4.28;;;11.30;99.10;;;;;;10320413;28;20022;-66
2023/04/07 15:53:11;;;;;;;6.47;4.45;;;11.50;99.30;;;;;;10317690;28;20692;-66
2023/04/07 15:58:12;;;;;;;8.60;4.70;;;11.30;99.20;;;;;;10317131;28;20028;-66
2023/04/07 16:03:13;;;;;;;8.32;4.85;;;11.30;99.30;;;;;;10317824;28;20094;-66
2023/04/07 16:08:13;;;;;;;7.95;4.68;;;11.30;99.30;;;;;;10315780;28;20442;-66
2023/04/07 16:13:21;;;;;;;6.40;4.53;;;11.40;99.30;;;;;;10319247;28;20403;-65
2023/04/07 16:18:23;;;;;;;8.68;5.13;;;11.40;99.20;;;;;;10315641;28;20026;-66
2023/04/07 16:23:24;;;;;;;7.28;4.55;;;11.50;99.10;;;;;;10312798;28;20043;-67
2023/04/07 16:28:24;;;;;;;6.15;4.10;;;11.50;99.10;;;;;;10313341;28;20128;-65
2023/04/07 16:33:26;;;;;;;7.65;4.40;;;11.50;99.10;;;;;;10314957;28;20026;-65
2023/04/07 16:38:28;;;;;;;7.20;4.70;;;11.60;99.30;;;;;;10316622;28;20027;-67
2023/04/07 16:43:28;;;;;;;6.07;4.38;;;11.50;99.30;;;;;;10315072;28;20433;-65
2023/04/07 16:48:29;;;;;;;6.55;4.35;;;11.50;99.30;;;;;;10321398;28;20022;-65
2023/04/07 16:53:29;;;;;;;6.05;4.38;;;11.50;99.40;;;;;;10319127;28;20022;-65
2023/04/07 16:58:30;;;;;;;7.40;4.50;;;11.40;99.40;;;;;;10315690;28;20018;-66
2023/04/07 17:03:31;;;;;;;7.28;4.68;;;11.40;99.40;;;;;;10319986;28;20470;-66
2023/04/07 17:08:32;;;;;;;6.80;4.15;;;11.30;99.50;;;;;;10313094;28;20479;-66
2023/04/07 17:13:33;;;;;;;6.97;4.45;;;11.30;99.60;;;;;;10319389;28;20081;-65
2023/04/07 17:18:33;;;;;;;9.82;4.90;;;11.30;99.70;;;;;;10313894;28;20030;-65
2023/04/07 17:23:34;;;;;;;7.78;4.70;;;11.30;99.80;;;;;;10315665;28;20030;-66
2023/04/07 17:28:35;;;;;;;9.48;5.45;;;11.20;99.90;;;;;;10314454;28;20025;-66
2023/04/07 17:33:35;;;;;;;7.75;5.00;;;11.10;99.90;;;;;;10314605;28;20113;-66
2023/04/07 17:38:36;;;;;;;8.02;4.90;;;11.10;99.90;;;;;;10313702;28;20038;-69
2023/04/07 17:43:37;;;;;;;7.40;4.65;;;11.00;99.90;;;;;;10311619;28;20057;-66
2023/04/07 17:48:38;;;;;;;7.80;4.57;;;11.00;99.90;;;;;;10315446;28;20164;-72
2023/04/07 17:53:38;;;;;;;6.47;4.40;;;11.10;99.90;;;;;;10315098;28;20057;-66
2023/04/07 17:58:40;;;;;;;6.50;4.55;;;11.10;99.90;;;;;;10314842;28;20080;-65
2023/04/07 18:03:43;;;;;;;7.07;5.00;;;11.10;99.90;;;;;;10302401;28;20088;-67
2023/04/07 18:08:46;;;;;;;7.80;4.60;;;11.10;99.90;;;;;;10309826;28;20027;-64
2023/04/07 18:13:47;;;;;;;7.43;5.07;;;11.10;99.90;;;;;;10316829;28;20026;-63
2023/04/07 18:18:48;;;;;;;9.05;5.10;;;11.20;99.90;;;;;;10312474;28;20018;-64
2023/04/07 18:23:49;;;;;;;7.68;4.22;;;11.20;99.90;;;;;;10314598;28;20482;-63
2023/04/07 18:28:49;;;;;;;7.80;4.75;;;11.20;99.90;;;;;;10311455;28;20157;-64
2023/04/07 18:33:50;;;;;;;6.53;4.50;;;11.20;99.90;;;;;;10309985;28;20038;-64
2023/04/07 18:38:50;;;;;;;6.93;4.47;;;11.20;99.90;;;;;;10315767;28;20097;-64
2023/04/07 18:43:51;;;;;;;7.50;4.47;;;11.30;99.90;;;;;;10315020;28;20084;-65
2023/04/07 18:48:52;;;;;;;6.80;4.32;;;11.30;99.90;;;;;;10311564;28;20505;-64
2023/04/07 18:53:53;;;;;;;6.68;4.03;;;11.30;99.90;;;;;;10311438;28;20483;-63
2023/04/07 18:58:53;;;;;;;5.15;3.55;;;11.20;99.90;;;;;;10313517;28;20030;-63
2023/04/07 19:03:56;;;;;;;5.95;3.83;;;11.30;99.90;;;;;;10310239;28;20030;-64
2023/04/07 19:08:57;;;;;;;6.25;3.92;;;11.20;99.90;;;;;;10311552;28;20031;-64
2023/04/07 19:13:58;;;;;;;6.63;3.90;;;11.20;99.90;;;;;;10310984;28;20066;-64
2023/04/07 19:18:58;;;;;;;5.90;3.72;;;11.20;99.90;;;;;;10319209;28;20401;-64
2023/04/07 19:23:59;;;;;;;5.95;4.15;;;11.20;99.90;;;;;;10318058;28;20030;-64
2023/04/07 19:29:02;;;;;;;8.65;3.85;;;11.20;99.90;;;;;;10312719;28;20058;-64
2023/04/07 19:34:02;;;;;;;7.40;4.20;;;11.20;99.90;;;;;;10310889;28;20038;-66
2023/04/07 19:39:04;;;;;;;6.00;4.03;;;11.20;99.90;;;;;;10319309;28;20038;-64
2023/04/07 19:44:04;;;;;;;5.43;3.55;;;11.20;99.90;;;;;;10320997;28;20390;-64
2023/04/07 19:49:05;;;;;;;5.72;3.83;;;11.20;99.90;;;;;;10317841;28;20045;-64
2023/04/07 19:54:06;;;;;;;6.00;3.40;;;11.20;99.90;;;;;;10318959;28;20028;-65
2023/04/07 19:59:07;;;;;;;5.55;3.85;;;11.20;99.90;;;;;;10319416;28;20380;-64
2023/04/07 20:04:07;;;;;;;5.72;3.85;;;11.20;99.80;;;;;;10316802;28;20041;-64
2023/04/07 20:09:09;;;;;;;4.97;3.70;;;11.20;99.80;;;;;;10316318;28;20306;-64
2023/04/07 20:14:09;;;;;;;5.10;3.65;;;11.20;99.80;;;;;;10318383;28;20391;-64
2023/04/07 20:19:10;;;;;;;6.30;3.85;;;11.10;99.80;;;;;;10315022;28;20030;-64
2023/04/07 20:24:11;;;;;;;5.35;3.83;;;11.10;99.80;;;;;;10316988;28;20027;-64
2023/04/07 20:29:11;;;;;;;5.18;3.80;;;11.10;99.70;;;;;;10317834;28;20027;-64
2023/04/07 20:34:12;;;;;;;6.00;4.03;;;11.10;99.70;;;;;;10321581;28;20092;-64
2023/04/07 20:39:13;;;;;;;5.07;3.90;;;11.10;99.70;;;;;;10323867;28;20105;-63
2023/04/07 20:44:13;;;;;;;7.13;4.00;;;11.10;99.70;;;;;;10320576;28;20030;-64
2023/04/07 20:49:14;;;;;;;6.93;3.97;;;11.00;99.70;;;;;;10321629;28;20133;-64
2023/04/07 20:54:15;;;;;;;7.40;4.38;;;11.00;99.70;;;;;;10321258;28;20041;-63
2023/04/07 20:59:15;;;;;;;7.55;5.05;;;11.00;99.70;;;;;;10333548;28;20121;-64
2023/04/07 21:04:16;;;;;;;7.30;4.55;;;11.00;99.70;;;;;;10309936;28;20019;-63
2023/04/07 21:09:17;;;;;;;7.45;4.90;;;10.90;99.60;;;;;;10309736;28;20037;-64
2023/04/07 21:14:17;;;;;;;6.57;4.07;;;11.00;99.60;;;;;;10318604;28;20030;-64
2023/04/07 21:19:18;;;;;;;6.90;4.72;;;10.90;99.60;;;;;;10317260;28;20022;-64
2023/04/07 21:24:20;;;;;;;7.80;4.78;;;10.90;99.60;;;;;;10320989;28;20030;-64
2023/04/07 21:29:21;;;;;;;7.15;4.47;;;10.90;99.90;;;;;;10319958;28;20057;-64
2023/04/07 21:34:21;;;;;;;6.85;4.30;;;10.90;99.60;;;;;;10318384;28;20117;-64
2023/04/07 21:39:22;;;;;;;6.60;4.20;;;10.90;99.60;;;;;;10309714;28;20050;-63
2023/04/07 21:44:23;;;;;;;8.48;4.25;;;10.80;99.50;;;;;;10319212;28;20450;-64
2023/04/07 21:49:24;;;;;;;8.10;4.75;;;10.80;99.50;;;;;;10318491;28;20019;-64
2023/04/07 21:54:25;;;;;;;7.18;4.80;;;10.80;99.50;;;;;;10316097;28;20099;-63
2023/04/07 21:59:26;;;;;;;6.20;4.55;;;10.80;99.50;;;;;;10315809;28;20037;-64
2023/04/07 22:04:27;;;;;;;6.82;4.75;;;10.80;99.50;;;;;;10311158;28;20037;-63
2023/04/07 22:09:28;;;;;;;7.82;4.68;;;10.80;99.40;;;;;;10310744;28;20030;-63
2023/04/07 22:14:28;;;;;;;6.72;4.60;;;10.70;99.40;;;;;;10316285;28;20061;-63
2023/04/07 22:19:29;;;;;;;6.15;4.70;;;10.70;99.40;;;;;;10314223;28;20088;-64
2023/04/07 22:24:29;;;;;;;7.85;4.80;;;10.70;99.40;;;;;;10316436;28;20105;-63
2023/04/07 22:29:30;;;;;;;6.30;4.25;;;10.70;99.30;;;;;;10313827;28;20022;-64
2023/04/07 22:34:31;;;;;;;8.35;5.00;;;10.60;99.30;;;;;;10314388;28;20038;-63
2023/04/07 22:39:31;;;;;;;6.25;4.25;;;10.60;99.30;;;;;;10313227;28;20578;-64
2023/04/07 22:44:32;;;;;;;7.22;4.72;;;10.60;99.20;;;;;;10311407;28;20359;-63
2023/04/07 22:49:32;;;;;;;7.85;5.00;;;10.60;99.20;;;;;;10313820;28;20058;-63
2023/04/07 22:54:33;;;;;;;8.50;5.43;;;10.60;99.20;;;;;;10313570;28;20042;-64
2023/04/07 22:59:33;;;;;;;7.68;4.53;;;10.50;99.10;;;;;;10315752;28;20038;-63
2023/04/07 23:04:34;;;;;;;6.90;4.63;;;10.50;99.10;;;;;;10309247;28;20018;-64
2023/04/07 23:09:35;;;;;;;7.72;4.82;;;10.50;99.00;;;;;;10314007;28;20031;-64
2023/04/07 23:14:35;;;;;;;6.30;4.55;;;10.40;99.00;;;;;;10320826;28;20023;-64
2023/04/07 23:19:36;;;;;;;7.63;5.10;;;10.50;98.90;;;;;;10322349;28;20037;-64
2023/04/07 23:24:37;;;;;;;7.35;4.57;;;10.40;98.90;;;;;;10319356;28;20019;-64
2023/04/07 23:29:37;;;;;;;6.40;4.13;;;10.40;98.90;;;;;;10323057;28;20515;-64
2023/04/07 23:34:39;;;;;;;8.35;4.50;;;10.40;98.80;;;;;;10320154;28;20038;-65
2023/04/07 23:39:39;;;;;;;8.55;4.68;;;10.40;98.80;;;;;;10321353;28;20334;-65
2023/04/07 23:44:40;;;;;;;7.68;4.93;;;10.30;98.80;;;;;;10319805;28;20026;-64
2023/04/07 23:49:40;;;;;;;9.40;4.28;;;10.30;98.70;;;;;;10324263;28;20397;-64
2023/04/07 23:54:41;;;;;;;6.63;4.43;;;10.30;98.70;;;;;;10323420;28;20440;-64
2023/04/07 23:59:42;;;;;;;6.00;4.25;;;10.30;98.70;;;;;;10319549;28;20022;-64
